createdAt,value
2018-11-10T00:00:51.886Z,96.47
2018-11-10T00:03:22.427Z,93.97
2018-11-10T00:05:53.026Z,96.67
2018-11-10T00:08:24.920Z,95.43
2018-11-10T00:10:55.579Z,98.40
2018-11-10T00:13:26.886Z,98.83
2018-11-10T00:15:57.379Z,96.33
2018-11-10T00:18:27.699Z,96.53
2018-11-10T00:20:58.119Z,97.47
2018-11-10T00:23:28.619Z,95.07
2018-11-10T00:25:59.067Z,94.77
2018-11-10T00:28:29.326Z,92.30
2018-11-10T00:30:59.744Z,92.63
2018-11-10T00:33:30.311Z,93.80
2018-11-10T00:36:00.482Z,91.90
2018-11-10T00:38:31.180Z,97.53
2018-11-10T00:41:01.295Z,92.27
2018-11-10T00:43:31.375Z,93.13
2018-11-10T00:46:01.435Z,91.70
2018-11-10T00:48:31.447Z,93.60
2018-11-10T00:51:01.875Z,95.27
2018-11-10T00:53:33.416Z,96.40
2018-11-10T00:56:04.055Z,92.77
2018-11-10T00:58:34.355Z,89.57
2018-11-10T01:01:04.724Z,87.73
2018-11-10T01:03:35.183Z,84.43
2018-11-10T01:06:05.426Z,87.87
2018-11-10T01:08:35.663Z,90.87
2018-11-10T01:11:06.083Z,86.80
2018-11-10T01:13:36.383Z,90.57
2018-11-10T01:16:07.184Z,85.57
2018-11-10T01:18:37.264Z,83.57
2018-11-10T01:21:07.644Z,85.63
2018-11-10T01:23:37.882Z,86.20
2018-11-10T01:26:08.602Z,80.97
2018-11-10T01:28:38.502Z,81.63
2018-11-10T01:31:08.622Z,81.57
2018-11-10T01:33:39.701Z,81.97
2018-11-10T01:36:10.122Z,78.80
2018-11-10T01:38:40.242Z,80.30
2018-11-10T01:41:10.561Z,83.10
2018-11-10T01:43:40.671Z,86.37
2018-11-10T01:46:10.742Z,84.50
2018-11-10T01:48:42.522Z,84.57
2018-11-10T01:51:12.899Z,83.90
2018-11-10T01:53:43.458Z,82.93
2018-11-10T01:56:13.881Z,83.20
2018-11-10T01:58:44.020Z,82.20
2018-11-10T02:01:13.995Z,82.20
2018-11-10T02:06:18.055Z,81.87
2018-11-10T02:08:48.134Z,79.40
2018-11-10T02:11:18.214Z,81.13
2018-11-10T02:13:48.335Z,78.27
2018-11-10T02:16:18.496Z,77.90
2018-11-10T02:18:48.734Z,79.90
2018-11-10T02:21:18.834Z,80.23
2018-11-10T02:23:48.835Z,80.10
2018-11-10T02:26:19.015Z,78.40
2018-11-10T02:28:49.317Z,81.30
2018-11-10T02:31:19.484Z,82.17
2018-11-10T02:33:49.901Z,81.23
2018-11-10T02:36:20.015Z,79.47
2018-11-10T02:38:50.046Z,80.27
2018-11-10T02:41:20.039Z,78.87
2018-11-10T02:43:50.534Z,75.00
2018-11-10T02:46:20.633Z,77.00
2018-11-10T02:48:50.634Z,83.20
2018-11-10T02:51:20.573Z,84.70
2018-11-10T02:53:50.894Z,82.13
2018-11-10T02:56:20.938Z,79.40
2018-11-10T02:58:51.094Z,80.13
2018-11-10T03:01:21.315Z,80.43
2018-11-10T03:03:51.540Z,80.77
2018-11-10T03:06:21.822Z,78.07
2018-11-10T03:08:51.899Z,84.03
2018-11-10T03:11:22.079Z,82.50
2018-11-10T03:13:52.240Z,79.30
2018-11-10T03:16:22.441Z,80.93
2018-11-10T03:18:52.680Z,79.27
2018-11-10T03:21:23.380Z,80.97
2018-11-10T03:23:53.420Z,81.10
2018-11-10T03:26:23.420Z,74.73
2018-11-10T03:28:53.823Z,72.97
2018-11-10T03:31:23.920Z,76.20
2018-11-10T03:33:54.120Z,76.00
2018-11-10T03:36:24.450Z,73.13
2018-11-10T03:38:54.886Z,69.60
2018-11-10T03:41:24.964Z,69.47
2018-11-10T03:43:55.323Z,68.93
2018-11-10T03:46:26.402Z,67.80
2018-11-10T03:48:56.966Z,69.60
2018-11-10T03:51:27.103Z,70.03
2018-11-10T03:53:57.285Z,74.23
2018-11-10T03:56:27.211Z,68.97
2018-11-10T03:58:57.303Z,73.00
2018-11-10T04:01:27.674Z,69.80
2018-11-10T04:03:57.835Z,69.47
2018-11-10T04:06:27.994Z,72.73
2018-11-10T04:08:58.074Z,68.53
2018-11-10T04:11:28.133Z,72.03
2018-11-10T04:13:58.253Z,73.83
2018-11-10T04:16:28.493Z,72.93
2018-11-10T04:18:58.694Z,72.23
2018-11-10T04:21:28.634Z,69.13
2018-11-10T04:23:58.774Z,72.40
2018-11-10T04:26:28.761Z,75.50
2018-11-10T04:28:58.980Z,80.43
2018-11-10T04:31:29.100Z,84.43
2018-11-10T04:34:00.682Z,81.27
2018-11-10T04:36:33.140Z,74.47
2018-11-10T04:39:06.161Z,72.33
2018-11-10T04:41:39.400Z,74.37
2018-11-10T04:46:49.418Z,73.23
2018-11-10T04:49:22.359Z,71.57
2018-11-10T04:51:56.618Z,71.60
2018-11-10T04:54:30.997Z,73.33
2018-11-10T04:57:04.481Z,74.57
2018-11-10T04:59:41.618Z,69.83
2018-11-10T05:02:17.081Z,72.03
2018-11-10T05:04:49.882Z,70.20
2018-11-10T05:07:27.414Z,70.50
2018-11-10T05:09:57.501Z,67.63
2018-11-10T05:12:27.640Z,66.03
2018-11-10T05:14:57.759Z,64.83
2018-11-10T05:17:28.059Z,65.10
2018-11-10T05:19:58.239Z,63.73
2018-11-10T05:22:28.339Z,60.60
2018-11-10T05:24:58.580Z,57.50
2018-11-10T05:27:28.739Z,60.23
2018-11-10T05:29:59.521Z,62.97
2018-11-10T05:32:29.580Z,63.83
2018-11-10T05:40:52.581Z,63.97
2018-11-10T05:43:22.419Z,64.73
2018-11-10T05:45:59.589Z,65.47
2018-11-10T05:48:29.299Z,63.57
2018-11-10T05:50:58.800Z,63.80
2018-11-10T05:53:29.200Z,61.07
2018-11-10T05:55:58.823Z,55.83
2018-11-10T05:58:30.059Z,58.63
2018-11-10T06:01:01.158Z,58.23
2018-11-10T06:03:30.918Z,58.37
2018-11-10T06:06:01.102Z,54.27
2018-11-10T06:08:30.918Z,55.53
2018-11-10T06:11:00.618Z,55.63
2018-11-10T06:13:38.358Z,54.73
2018-11-10T06:16:08.550Z,54.60
2018-11-10T06:18:38.234Z,52.00
2018-11-10T06:21:08.318Z,52.33
2018-11-10T06:23:37.978Z,51.43
2018-11-10T06:26:08.509Z,51.83
2018-11-10T06:28:38.458Z,51.53
2018-11-10T06:31:08.619Z,48.53
2018-11-10T06:33:39.638Z,47.53
2018-11-10T06:36:09.706Z,48.17
2018-11-10T06:38:39.778Z,49.33
2018-11-10T06:41:09.712Z,48.13
2018-11-10T06:43:39.659Z,46.57
2018-11-10T06:46:09.598Z,47.07
2018-11-10T06:48:39.838Z,47.97
2018-11-10T06:51:10.218Z,45.27
2018-11-10T06:53:39.958Z,46.60
2018-11-10T06:56:09.816Z,43.13
2018-11-10T06:58:39.494Z,42.67
2018-11-10T07:01:09.441Z,42.60
2018-11-10T07:03:39.438Z,39.70
2018-11-10T07:06:09.017Z,40.00
2018-11-10T07:08:39.176Z,40.33
2018-11-10T07:11:08.780Z,40.63
2018-11-10T07:13:38.576Z,38.50
2018-11-10T07:16:08.436Z,38.67
2018-11-10T07:18:40.736Z,39.27
2018-11-10T07:21:10.498Z,37.87
2018-11-10T07:23:42.396Z,38.47
2018-11-10T07:26:12.096Z,33.90
2018-11-10T07:28:41.757Z,36.77
2018-11-10T07:31:11.676Z,37.27
2018-11-10T07:33:41.909Z,36.83
2018-11-10T07:36:11.896Z,35.93
2018-11-10T07:38:41.956Z,37.53
2018-11-10T07:41:12.477Z,34.37
2018-11-10T07:43:42.318Z,33.93
2018-11-10T07:46:12.296Z,35.97
2018-11-10T07:48:42.018Z,35.83
2018-11-10T07:51:12.204Z,35.30
2018-11-10T07:53:42.257Z,33.23
2018-11-10T07:56:12.097Z,33.17
2018-11-10T07:58:41.696Z,32.70
2018-11-10T08:01:12.375Z,33.57
2018-11-10T08:03:42.357Z,32.07
2018-11-10T08:06:12.616Z,32.53
2018-11-10T08:08:42.276Z,31.73
2018-11-10T08:11:12.399Z,30.43
2018-11-10T08:13:43.175Z,29.63
2018-11-10T08:16:12.725Z,29.87
2018-11-10T08:18:42.633Z,27.80
2018-11-10T08:21:12.855Z,27.63
2018-11-10T08:23:42.536Z,27.27
2018-11-10T08:26:12.257Z,24.43
2018-11-10T08:28:42.296Z,23.67
2018-11-10T08:31:12.133Z,24.67
2018-11-10T08:33:42.159Z,22.83
2018-11-10T08:36:11.755Z,24.07
2018-11-10T08:38:41.459Z,25.17
2018-11-10T08:41:11.176Z,23.87
2018-11-10T08:43:41.137Z,24.43
2018-11-10T08:46:10.976Z,23.47
2018-11-10T08:48:41.416Z,21.57
2018-11-10T08:51:10.859Z,22.50
2018-11-10T08:53:40.496Z,21.53
2018-11-10T08:56:10.079Z,20.20
2018-11-10T08:58:40.057Z,19.83
2018-11-10T09:01:09.817Z,19.60
2018-11-10T09:03:39.933Z,20.03
2018-11-10T09:06:09.754Z,19.43
2018-11-10T09:08:46.536Z,19.20
2018-11-10T09:11:16.477Z,18.03
2018-11-10T09:13:46.296Z,19.17
2018-11-10T09:16:16.179Z,17.93
2018-11-10T09:18:45.953Z,18.73
2018-11-10T09:21:16.440Z,19.63
2018-11-10T09:23:46.053Z,18.37
2018-11-10T09:26:16.448Z,18.77
2018-11-10T09:28:48.309Z,20.53
2018-11-10T09:31:18.312Z,19.23
2018-11-10T09:33:58.447Z,20.30
2018-11-10T09:36:31.604Z,20.70
2018-11-10T09:39:01.635Z,20.53
2018-11-10T09:41:31.356Z,21.70
2018-11-10T09:44:07.112Z,20.67
2018-11-10T09:46:39.740Z,21.73
2018-11-10T09:51:59.484Z,23.47
2018-11-10T09:54:28.879Z,21.80
2018-11-10T09:56:59.101Z,20.17
2018-11-10T09:59:29.573Z,22.77
2018-11-10T10:02:03.347Z,22.27
2018-11-10T10:07:11.620Z,21.27
2018-11-10T10:09:41.684Z,21.67
2018-11-10T10:12:24.467Z,21.77
2018-11-10T10:14:59.660Z,22.43
2018-11-10T10:17:29.696Z,22.40
2018-11-10T10:20:09.021Z,22.13
2018-11-10T10:22:38.378Z,21.43
2018-11-10T10:25:14.599Z,19.87
2018-11-10T10:27:45.710Z,19.90
2018-11-10T10:30:17.300Z,20.27
2018-11-10T10:32:47.752Z,21.87
2018-11-10T10:35:17.594Z,20.60
2018-11-10T10:37:55.006Z,19.83
2018-11-10T10:40:25.310Z,20.63
2018-11-10T10:43:01.653Z,18.47
2018-11-10T10:45:30.984Z,18.93
2018-11-10T10:48:00.449Z,19.63
2018-11-10T10:50:30.059Z,19.67
2018-11-10T10:53:01.000Z,20.03
2018-11-10T10:55:35.131Z,19.60
2018-11-10T10:58:04.723Z,21.20
2018-11-10T11:00:44.555Z,19.60
2018-11-10T11:03:19.274Z,19.40
2018-11-10T11:05:53.618Z,20.57
2018-11-10T11:08:23.100Z,20.97
2018-11-10T11:10:52.440Z,21.23
2018-11-10T11:13:23.939Z,22.57
2018-11-10T11:15:56.453Z,20.57
2018-11-10T11:18:28.041Z,20.03
2018-11-10T11:21:01.481Z,19.73
2018-11-10T11:26:08.821Z,19.93
2018-11-10T11:28:40.258Z,21.13
2018-11-10T11:31:14.080Z,20.27
2018-11-10T11:33:48.499Z,20.47
2018-11-10T11:36:22.057Z,20.13
2018-11-10T11:38:52.777Z,20.70
2018-11-10T11:41:25.502Z,20.87
2018-11-10T11:43:57.959Z,19.63
2018-11-10T11:46:34.999Z,20.33
2018-11-10T12:02:05.292Z,20.00
2018-11-10T12:04:35.571Z,17.97
2018-11-10T12:07:09.983Z,18.87
2018-11-10T12:09:39.502Z,19.40
2018-11-10T12:12:10.478Z,18.00
2018-11-10T12:14:40.435Z,18.27
2018-11-10T12:17:10.177Z,17.57
2018-11-10T12:19:39.877Z,16.80
2018-11-10T12:22:09.500Z,17.13
2018-11-10T12:24:43.235Z,14.53
2018-11-10T12:27:12.907Z,14.30
2018-11-10T12:29:42.367Z,13.87
2018-11-10T12:32:12.104Z,12.70
2018-11-10T12:34:41.659Z,13.40
2018-11-10T12:37:13.639Z,13.50
2018-11-10T12:39:43.479Z,13.20
2018-11-10T12:42:13.076Z,13.03
2018-11-10T12:44:42.856Z,12.10
2018-11-10T12:47:12.675Z,13.10
2018-11-10T12:49:42.557Z,11.53
2018-11-10T12:52:12.574Z,12.50
2018-11-10T12:54:42.314Z,12.60
2018-11-10T12:57:12.074Z,9.83
2018-11-10T12:59:41.775Z,12.83
2018-11-10T13:02:12.625Z,10.87
2018-11-10T13:04:42.297Z,10.47
2018-11-10T13:07:11.877Z,11.33
2018-11-10T13:09:41.416Z,10.60
2018-11-10T13:12:11.103Z,11.07
2018-11-10T13:14:40.676Z,10.07
2018-11-10T13:17:10.827Z,10.57
2018-11-10T13:19:40.856Z,10.90
2018-11-10T13:22:10.816Z,13.10
2018-11-10T13:24:41.102Z,12.97
2018-11-10T13:27:11.053Z,10.87
2018-11-10T13:29:40.636Z,11.00
2018-11-10T13:32:10.637Z,10.77
2018-11-10T13:34:40.797Z,11.30
2018-11-10T13:37:10.517Z,11.10
2018-11-10T13:39:42.617Z,9.67
2018-11-10T13:42:12.440Z,11.90
2018-11-10T13:44:49.078Z,22.93
2018-11-10T13:47:18.657Z,12.00
2018-11-10T13:52:15.143Z,10.90
2018-11-10T13:54:44.856Z,10.97
2018-11-10T13:57:15.232Z,11.23
2018-11-10T13:59:45.059Z,10.73
2018-11-10T14:02:48.375Z,11.40
2018-11-10T14:05:18.638Z,11.17
2018-11-10T14:07:48.736Z,11.30
2018-11-10T14:10:18.670Z,11.47
2018-11-10T14:12:48.766Z,11.60
2018-11-10T14:15:20.736Z,12.60
2018-11-10T14:17:50.536Z,12.80
2018-11-10T14:20:20.321Z,11.67
2018-11-10T14:22:50.098Z,12.20
2018-11-10T14:25:22.055Z,12.43
2018-11-10T14:27:51.796Z,12.47
2018-11-10T14:30:21.816Z,11.73
2018-11-10T14:32:51.315Z,11.77
2018-11-10T14:35:21.788Z,10.80
2018-11-10T14:37:51.725Z,12.27
2018-11-10T14:40:21.536Z,11.90
2018-11-10T14:42:52.919Z,12.47
2018-11-10T14:45:22.915Z,12.60
2018-11-10T14:47:52.655Z,13.00
2018-11-10T14:50:30.319Z,12.77
2018-11-10T14:53:00.878Z,11.37
2018-11-10T14:55:36.415Z,12.77
2018-11-10T14:58:06.575Z,12.20
2018-11-10T15:00:36.235Z,11.87
2018-11-10T15:03:05.975Z,12.37
2018-11-10T15:05:36.194Z,11.90
2018-11-10T15:08:06.396Z,11.97
2018-11-10T15:10:36.295Z,12.63
2018-11-10T15:13:06.844Z,13.00
2018-11-10T15:15:36.435Z,12.80
2018-11-10T15:18:10.090Z,13.13
2018-11-10T15:20:39.875Z,11.97
2018-11-10T15:23:14.375Z,12.60
2018-11-10T15:25:44.255Z,12.77
2018-11-10T15:28:13.894Z,12.20
2018-11-10T15:30:43.915Z,13.77
2018-11-10T15:33:13.735Z,12.10
2018-11-10T15:35:43.835Z,12.27
2018-11-10T15:38:13.955Z,11.77
2018-11-10T15:40:43.995Z,12.57
2018-11-10T15:43:13.695Z,13.03
2018-11-10T15:45:45.935Z,13.07
2018-11-10T15:48:15.456Z,14.03
2018-11-10T15:50:47.395Z,15.00
2018-11-10T15:53:17.576Z,14.97
2018-11-10T15:55:47.655Z,15.67
2018-11-10T15:58:18.194Z,16.30
2018-11-10T16:00:47.995Z,16.83
2018-11-10T16:03:18.474Z,16.93
2018-11-10T16:05:48.214Z,15.50
2018-11-10T16:08:18.055Z,17.37
2018-11-10T16:10:47.814Z,17.43
2018-11-10T16:13:17.474Z,17.60
2018-11-10T16:15:47.294Z,17.87
2018-11-10T16:18:17.294Z,19.17
2018-11-10T16:20:47.756Z,19.13
2018-11-10T16:23:17.514Z,19.27
2018-11-10T16:25:47.274Z,18.57
2018-11-10T16:28:17.054Z,18.57
2018-11-10T16:30:46.854Z,19.03
2018-11-10T16:33:25.273Z,19.27
2018-11-10T16:35:54.894Z,18.47
2018-11-10T16:38:25.014Z,19.33
2018-11-10T16:40:55.270Z,19.50
2018-11-10T16:43:25.172Z,17.90
2018-11-10T16:45:55.017Z,19.80
2018-11-10T16:48:25.558Z,19.83
2018-11-10T16:50:55.438Z,19.60
2018-11-10T16:53:25.677Z,20.00
2018-11-10T16:55:55.297Z,19.53
2018-11-10T16:58:24.875Z,21.40
2018-11-10T17:00:55.279Z,19.93
2018-11-10T17:03:24.860Z,20.50
2018-11-10T17:05:57.841Z,20.77
2018-11-10T17:08:27.642Z,20.63
2018-11-10T17:10:57.654Z,20.70
2018-11-10T17:13:27.755Z,21.03
2018-11-10T17:15:57.855Z,21.23
2018-11-10T17:18:28.294Z,20.60
2018-11-10T17:20:58.449Z,20.83
2018-11-10T17:23:28.234Z,21.43
2018-11-10T17:25:57.722Z,19.43
2018-11-10T17:28:28.595Z,20.80
2018-11-10T17:30:58.314Z,19.77
2018-11-10T17:33:28.135Z,22.07
2018-11-10T17:35:58.233Z,19.80
2018-11-10T17:38:27.974Z,20.33
2018-11-10T17:40:57.754Z,21.77
2018-11-10T17:43:27.698Z,22.70
2018-11-10T17:45:57.574Z,20.43
2018-11-10T17:48:27.539Z,21.57
2018-11-10T17:50:57.416Z,23.53
2018-11-10T17:53:27.176Z,23.03
2018-11-10T17:55:56.938Z,28.70
2018-11-10T17:58:27.853Z,26.20
2018-11-10T18:00:57.783Z,23.47
2018-11-10T18:03:32.241Z,23.33
2018-11-10T18:06:02.078Z,21.80
2018-11-10T18:08:32.116Z,22.23
2018-11-10T18:11:01.839Z,22.43
2018-11-10T18:13:34.757Z,23.37
2018-11-10T18:16:04.418Z,23.33
2018-11-10T18:18:34.261Z,23.23
2018-11-10T18:21:04.219Z,22.53
2018-11-10T18:23:34.498Z,22.97
2018-11-10T18:26:04.478Z,23.50
2018-11-10T18:28:34.476Z,22.90
2018-11-10T18:31:04.477Z,22.03
2018-11-10T18:33:34.217Z,22.27
2018-11-10T18:36:04.137Z,23.27
2018-11-10T18:38:33.945Z,24.37
2018-11-10T18:41:05.478Z,25.93
2018-11-10T18:43:35.497Z,26.37
2018-11-10T18:46:06.258Z,25.93
2018-11-10T18:48:36.638Z,25.00
2018-11-10T18:51:06.698Z,23.80
2018-11-10T18:53:36.618Z,23.37
2018-11-10T18:56:06.137Z,23.33
2018-11-10T18:58:43.537Z,23.70
2018-11-10T19:01:13.457Z,25.27
2018-11-10T19:03:43.119Z,24.73
2018-11-10T19:06:19.820Z,24.47
2018-11-10T19:08:49.699Z,26.27
2018-11-10T19:11:19.661Z,25.60
2018-11-10T19:13:49.901Z,22.57
2018-11-10T19:16:19.663Z,24.90
2018-11-10T19:18:49.943Z,24.73
2018-11-10T19:21:19.718Z,23.03
2018-11-10T19:23:49.459Z,22.57
2018-11-10T19:26:19.078Z,23.37
2018-11-10T19:28:48.859Z,25.73
2018-11-10T19:31:18.540Z,22.83
2018-11-10T19:33:49.260Z,24.10
2018-11-10T19:36:19.040Z,23.20
2018-11-10T19:38:53.299Z,20.97
2018-11-10T19:41:23.339Z,23.10
2018-11-10T19:43:53.219Z,21.87
2018-11-10T19:46:22.820Z,23.13
2018-11-10T19:48:59.281Z,23.00
2018-11-10T19:51:29.035Z,22.47
2018-11-10T19:53:59.200Z,21.13
2018-11-10T19:56:29.399Z,22.90
2018-11-10T19:58:59.059Z,22.83
2018-11-10T20:01:28.717Z,21.70
2018-11-10T20:03:58.853Z,22.07
2018-11-10T20:06:29.257Z,22.10
2018-11-10T20:08:59.118Z,21.70
2018-11-10T20:11:28.900Z,22.43
2018-11-10T20:13:58.762Z,22.97
2018-11-10T20:16:28.517Z,24.57
2018-11-10T20:18:58.617Z,23.90
2018-11-10T20:21:28.516Z,21.80
2018-11-10T20:23:58.178Z,22.47
2018-11-10T20:26:27.981Z,23.50
2018-11-10T20:28:57.357Z,22.27
2018-11-10T20:31:27.117Z,22.83
2018-11-10T20:33:57.317Z,23.43
2018-11-10T20:36:27.039Z,21.97
2018-11-10T20:38:57.230Z,22.60
2018-11-10T20:41:27.577Z,22.47
2018-11-10T20:43:57.297Z,21.07
2018-11-10T20:46:28.778Z,23.27
2018-11-10T20:48:58.736Z,22.23
2018-11-10T20:51:29.615Z,23.07
2018-11-10T20:53:59.736Z,24.23
2018-11-10T20:56:29.897Z,22.67
2018-11-10T20:59:00.321Z,24.03
2018-11-10T21:01:30.016Z,23.63
2018-11-10T21:03:59.720Z,24.40
2018-11-10T21:06:30.218Z,25.47
2018-11-10T21:08:59.979Z,25.43
2018-11-10T21:11:29.904Z,26.70
2018-11-10T21:13:59.879Z,26.60
2018-11-10T21:16:29.816Z,27.13
2018-11-10T21:18:59.876Z,28.23
2018-11-10T21:21:29.795Z,27.83
2018-11-10T21:23:59.295Z,27.87
2018-11-10T21:26:29.142Z,27.17
2018-11-10T21:28:58.798Z,26.13
2018-11-10T21:31:29.123Z,25.13
2018-11-10T21:36:32.782Z,26.30
2018-11-10T21:39:02.882Z,24.60
2018-11-10T21:41:32.722Z,27.07
2018-11-10T21:44:02.383Z,25.40
2018-11-10T21:46:32.002Z,25.47
2018-11-10T21:49:02.889Z,25.03
2018-11-10T21:51:32.503Z,26.20
2018-11-10T21:54:02.322Z,25.67
2018-11-10T21:56:31.942Z,25.97
2018-11-10T21:59:06.083Z,24.37
2018-11-10T22:01:36.040Z,25.77
2018-11-10T22:04:09.887Z,25.93
2018-11-10T22:06:39.937Z,25.40
2018-11-10T22:09:12.424Z,26.43
2018-11-10T22:11:43.917Z,26.80
2018-11-10T22:14:13.842Z,27.03
2018-11-10T22:16:43.399Z,25.97
2018-11-10T22:19:13.525Z,24.20
2018-11-10T22:21:43.457Z,24.20
2018-11-10T22:24:13.265Z,25.87
2018-11-10T22:26:42.997Z,23.87
2018-11-10T22:29:13.092Z,24.93
2018-11-10T22:31:42.719Z,25.27
2018-11-10T22:34:12.297Z,24.47
2018-11-10T22:36:45.518Z,23.93
2018-11-10T22:39:15.336Z,25.03
2018-11-10T22:41:52.195Z,25.83
2018-11-10T22:44:21.956Z,25.40
2018-11-10T22:46:52.655Z,26.93
2018-11-10T22:49:22.355Z,24.73
2018-11-10T22:51:52.176Z,25.40
2018-11-10T22:54:22.068Z,23.57
2018-11-10T22:56:51.435Z,25.83
2018-11-10T22:59:20.987Z,24.37
2018-11-10T23:01:51.037Z,24.63
2018-11-10T23:04:20.905Z,24.30
2018-11-10T23:06:50.424Z,25.47
2018-11-10T23:09:20.456Z,24.60
2018-11-10T23:11:54.415Z,25.30
2018-11-10T23:14:23.877Z,26.50
2018-11-10T23:16:55.001Z,26.47
2018-11-10T23:19:24.879Z,25.13
2018-11-10T23:22:00.577Z,25.47
2018-11-10T23:24:30.396Z,24.80
2018-11-10T23:27:00.220Z,25.30
2018-11-10T23:29:29.999Z,26.37
2018-11-10T23:32:06.160Z,26.27
2018-11-10T23:34:39.930Z,25.70
2018-11-10T23:37:09.564Z,26.27
2018-11-10T23:39:39.279Z,26.20
2018-11-10T23:42:08.948Z,26.83
2018-11-10T23:44:45.739Z,28.90
2018-11-10T23:47:15.679Z,27.37
2018-11-10T23:49:45.745Z,26.97
2018-11-10T23:52:15.239Z,25.73
2018-11-10T23:54:45.159Z,25.63
2018-11-10T23:57:14.698Z,25.60
2018-11-10T23:59:44.777Z,25.27
